createdAt,value
2019-01-04T00:01:33.072Z,0.60
2019-01-04T00:04:08.620Z,0.60
2019-01-04T00:06:38.338Z,0.60
2019-01-04T00:09:10.960Z,0.60
2019-01-04T00:11:45.439Z,0.60
2019-01-04T00:14:12.726Z,0.60
2019-01-04T00:16:47.116Z,0.60
2019-01-04T00:19:21.686Z,0.60
2019-01-04T00:21:48.792Z,0.60
2019-01-04T00:24:21.703Z,0.60
2019-01-04T00:26:51.492Z,0.70
2019-01-04T00:29:24.311Z,0.60
2019-01-04T00:31:56.968Z,0.60
2019-01-04T00:34:26.839Z,0.70
2019-01-04T00:36:58.689Z,0.70
2019-01-04T00:39:28.501Z,0.70
2019-01-04T00:42:02.529Z,0.70
2019-01-04T00:44:35.404Z,0.60
2019-01-04T00:47:08.625Z,0.60
2019-01-04T00:49:38.499Z,0.60
2019-01-04T00:52:11.162Z,0.60
2019-01-04T00:54:51.085Z,0.60
2019-01-04T00:57:48.110Z,0.60
2019-01-04T01:00:57.033Z,0.60
2019-01-04T01:03:59.337Z,0.60
2019-01-04T01:07:09.032Z,0.60
2019-01-04T01:10:21.918Z,0.60
2019-01-04T01:13:37.423Z,0.60
2019-01-04T01:17:00.302Z,0.50
2019-01-04T01:20:11.793Z,0.40
2019-01-04T01:23:20.628Z,0.30
2019-01-04T01:26:45.918Z,0.10
2019-01-04T01:30:00.668Z,0.00
2019-01-04T01:33:11.382Z,-0.10
2019-01-04T01:36:11.741Z,-0.20
2019-01-04T01:39:14.422Z,-0.20
2019-01-04T01:42:16.571Z,-0.20
2019-01-04T01:45:20.991Z,-0.30
2019-01-04T01:48:21.115Z,-0.40
2019-01-04T01:51:33.935Z,-0.40
2019-01-04T01:54:03.793Z,-0.40
2019-01-04T01:56:34.876Z,-0.30
2019-01-04T01:59:04.682Z,-0.30
2019-01-04T02:01:37.558Z,-0.30
2019-01-04T02:04:10.311Z,-0.30
2019-01-04T02:06:40.224Z,-0.30
2019-01-04T02:09:11.774Z,-0.30
2019-01-04T02:11:45.379Z,-0.30
2019-01-04T02:14:46.025Z,-0.30
2019-01-04T02:17:15.751Z,-0.40
2019-01-04T02:19:48.371Z,-0.40
2019-01-04T02:22:20.915Z,-0.50
2019-01-04T02:24:50.744Z,-0.50
2019-01-04T02:27:22.966Z,-0.60
2019-01-04T02:29:52.724Z,-0.60
2019-01-04T02:32:24.951Z,-0.60
2019-01-04T02:34:57.939Z,-0.70
2019-01-04T02:37:27.731Z,-0.70
2019-01-04T02:40:00.515Z,-0.80
2019-01-04T02:42:32.964Z,-0.90
2019-01-04T02:45:02.734Z,-1.00
2019-01-04T02:47:35.532Z,-1.00
2019-01-04T02:50:11.041Z,-1.00
2019-01-04T02:52:43.600Z,-1.00
2019-01-04T02:55:12.972Z,-1.10
2019-01-04T02:57:45.834Z,-1.10
2019-01-04T03:00:15.603Z,-1.20
2019-01-04T03:02:48.461Z,-1.20
2019-01-04T03:05:25.589Z,-1.10
2019-01-04T03:07:58.187Z,-1.10
2019-01-04T03:10:27.902Z,-1.00
2019-01-04T03:12:58.839Z,-1.00
2019-01-04T03:15:28.546Z,-1.00
2019-01-04T03:17:59.932Z,-0.90
2019-01-04T03:20:32.824Z,-0.90
2019-01-04T03:23:02.516Z,-0.90
2019-01-04T03:25:35.188Z,-0.80
2019-01-04T03:28:22.051Z,-0.80
2019-01-04T03:30:49.598Z,-0.80
2019-01-04T03:33:22.393Z,-0.70
2019-01-04T03:35:52.167Z,-0.70
2019-01-04T03:38:23.481Z,-0.70
2019-01-04T03:40:57.866Z,-0.70
2019-01-04T03:43:25.129Z,-0.70
2019-01-04T03:45:59.292Z,-0.60
2019-01-04T03:48:33.434Z,-0.70
2019-01-04T03:51:03.342Z,-0.60
2019-01-04T03:53:35.823Z,-0.60
2019-01-04T03:56:08.583Z,-0.60
2019-01-04T03:58:38.279Z,-0.50
2019-01-04T04:01:11.046Z,-0.50
2019-01-04T04:03:40.823Z,-0.50
2019-01-04T04:06:13.184Z,-0.50
2019-01-04T04:08:45.892Z,-0.50
2019-01-04T04:11:15.586Z,-0.50
2019-01-04T04:13:48.173Z,-0.50
2019-01-04T04:16:20.543Z,-0.40
2019-01-04T04:18:50.317Z,-0.40
2019-01-04T04:21:22.841Z,-0.40
2019-01-04T04:23:52.636Z,-0.40
2019-01-04T04:26:24.028Z,-0.40
2019-01-04T04:28:57.048Z,-0.40
2019-01-04T04:31:26.813Z,-0.40
2019-01-04T04:34:34.461Z,-0.40
2019-01-04T04:37:04.249Z,-0.40
2019-01-04T04:39:36.909Z,-0.40
2019-01-04T04:42:09.593Z,-0.40
2019-01-04T04:44:39.301Z,-0.40
2019-01-04T04:47:12.217Z,-0.40
2019-01-04T04:49:45.237Z,-0.40
2019-01-04T04:52:15.012Z,-0.40
2019-01-04T04:54:48.122Z,-0.30
2019-01-04T04:57:20.653Z,-0.30
2019-01-04T04:59:50.348Z,-0.30
2019-01-04T05:02:33.062Z,-0.30
2019-01-04T05:05:09.532Z,-0.30
2019-01-04T05:07:39.230Z,-0.30
2019-01-04T05:10:12.677Z,-0.20
2019-01-04T05:12:44.897Z,-0.20
2019-01-04T05:15:14.633Z,-0.30
2019-01-04T05:17:47.092Z,-0.20
2019-01-04T05:20:16.807Z,-0.20
2019-01-04T05:22:48.120Z,-0.30
2019-01-04T05:25:21.915Z,-0.30
2019-01-04T05:27:51.637Z,-0.30
2019-01-04T05:30:24.665Z,-0.30
2019-01-04T05:32:56.564Z,-0.20
2019-01-04T05:35:26.269Z,-0.30
2019-01-04T05:38:00.555Z,-0.20
2019-01-04T05:40:33.533Z,-0.20
2019-01-04T05:43:03.222Z,-0.20
2019-01-04T05:45:36.458Z,-0.20
2019-01-04T05:48:24.536Z,-0.20
2019-01-04T05:50:57.452Z,-0.20
2019-01-04T05:53:27.145Z,-0.20
2019-01-04T05:55:59.339Z,-0.20
2019-01-04T05:58:29.106Z,-0.30
2019-01-04T06:01:01.836Z,-0.40
2019-01-04T06:03:39.032Z,-0.40
2019-01-04T06:06:11.912Z,-0.40
2019-01-04T06:08:47.405Z,-0.40
2019-01-04T06:11:17.138Z,-0.40
2019-01-04T06:13:49.797Z,-0.40
2019-01-04T06:16:25.285Z,-0.40
2019-01-04T06:18:58.322Z,-0.40
2019-01-04T06:21:28.184Z,-0.40
2019-01-04T06:24:01.114Z,-0.40
2019-01-04T06:26:33.597Z,-0.50
2019-01-04T06:29:03.303Z,-0.50
2019-01-04T06:31:36.494Z,-0.50
2019-01-04T06:34:08.873Z,-0.60
2019-01-04T06:36:38.597Z,-0.60
2019-01-04T06:39:11.253Z,-0.60
2019-01-04T06:41:40.962Z,-0.70
2019-01-04T06:44:12.253Z,-0.80
2019-01-04T06:47:22.340Z,-0.80
2019-01-04T06:49:52.426Z,-0.80
2019-01-04T06:52:23.967Z,-0.90
2019-01-04T06:55:37.090Z,-1.00
2019-01-04T06:58:09.654Z,-1.00
2019-01-04T07:00:39.498Z,-1.10
2019-01-04T07:03:12.422Z,-1.20
2019-01-04T07:05:45.680Z,-1.20
2019-01-04T07:08:15.389Z,-1.30
2019-01-04T07:10:47.349Z,-1.30
2019-01-04T07:13:17.132Z,-1.30
2019-01-04T07:15:50.437Z,-1.30
2019-01-04T07:18:22.944Z,-1.40
2019-01-04T07:20:52.704Z,-1.40
2019-01-04T07:23:24.053Z,-1.40
2019-01-04T07:26:08.601Z,-1.40
2019-01-04T07:28:38.292Z,-1.40
2019-01-04T07:31:11.004Z,-1.40
2019-01-04T07:33:40.770Z,-1.40
2019-01-04T07:36:12.177Z,-1.30
2019-01-04T07:38:44.623Z,-1.30
2019-01-04T07:41:14.308Z,-1.20
2019-01-04T07:43:46.845Z,-1.10
2019-01-04T07:46:16.548Z,-1.00
2019-01-04T07:48:48.176Z,-0.90
2019-01-04T07:51:20.649Z,-0.80
2019-01-04T07:53:50.492Z,-0.70
2019-01-04T07:56:22.944Z,-0.60
2019-01-04T07:58:52.690Z,-0.50
2019-01-04T08:01:24.037Z,-0.50
2019-01-04T08:03:59.046Z,-0.40
2019-01-04T08:06:40.891Z,-0.40
2019-01-04T08:09:12.198Z,-0.30
2019-01-04T08:11:44.717Z,-0.20
2019-01-04T08:14:14.425Z,-0.10
2019-01-04T08:16:47.073Z,0.00
2019-01-04T08:19:16.769Z,0.20
2019-01-04T08:21:48.085Z,0.30
2019-01-04T08:24:20.293Z,0.40
2019-01-04T08:27:01.809Z,0.40
2019-01-04T08:29:34.916Z,0.50
2019-01-04T08:32:04.605Z,0.60
2019-01-04T08:34:35.607Z,0.70
2019-01-04T08:37:05.393Z,1.00
2019-01-04T08:39:37.734Z,1.10
2019-01-04T08:42:10.574Z,1.20
2019-01-04T08:44:50.538Z,1.10
2019-01-04T08:47:23.083Z,1.10
2019-01-04T08:49:52.761Z,1.00
2019-01-04T08:52:26.442Z,1.00
2019-01-04T08:54:58.963Z,1.00
2019-01-04T08:57:28.732Z,1.00
2019-01-04T09:00:08.360Z,1.00
2019-01-04T09:02:37.748Z,1.10
2019-01-04T09:05:10.750Z,1.30
2019-01-04T09:08:10.867Z,1.40
2019-01-04T09:10:40.787Z,1.50
2019-01-04T09:13:12.457Z,1.70
2019-01-04T09:15:49.761Z,1.80
2019-01-04T09:18:22.377Z,1.90
2019-01-04T09:20:52.053Z,1.80
2019-01-04T09:23:34.198Z,1.80
2019-01-04T09:26:01.729Z,1.90
2019-01-04T09:28:34.239Z,2.00
2019-01-04T09:31:04.090Z,2.20
2019-01-04T09:33:38.228Z,2.50
2019-01-04T09:36:21.109Z,2.90
2019-01-04T09:38:51.947Z,3.30
2019-01-04T09:41:37.441Z,3.40
2019-01-04T09:44:10.031Z,3.30
2019-01-04T09:46:39.713Z,3.40
2019-01-04T09:49:11.727Z,3.30
2019-01-04T09:51:41.919Z,3.40
2019-01-04T09:54:13.785Z,3.60
2019-01-04T09:56:46.767Z,3.90
2019-01-04T09:59:16.481Z,4.00
2019-01-04T10:02:16.401Z,3.90
2019-01-04T10:04:49.782Z,4.00
2019-01-04T10:07:22.776Z,3.80
2019-01-04T10:09:52.556Z,3.80
2019-01-04T10:12:25.073Z,4.00
2019-01-04T10:15:28.034Z,4.10
2019-01-04T10:18:01.539Z,4.10
2019-01-04T10:20:34.570Z,4.20
2019-01-04T10:23:04.312Z,4.30
2019-01-04T10:25:36.875Z,4.30
2019-01-04T10:28:09.960Z,4.20
2019-01-04T10:30:39.644Z,4.10
2019-01-04T10:33:12.954Z,4.10
2019-01-04T10:35:45.727Z,4.00
2019-01-04T10:38:15.449Z,4.00
2019-01-04T10:40:48.215Z,4.10
2019-01-04T10:43:22.458Z,4.10
2019-01-04T10:45:49.880Z,4.00
2019-01-04T10:48:24.251Z,3.60
2019-01-04T10:50:58.905Z,3.50
2019-01-04T10:53:56.691Z,3.30
2019-01-04T10:56:27.962Z,3.30
2019-01-04T10:59:00.596Z,3.30
2019-01-04T11:01:33.045Z,3.30
2019-01-04T11:04:02.744Z,3.30
2019-01-04T11:06:35.218Z,3.10
2019-01-04T11:09:11.081Z,3.10
2019-01-04T11:11:40.853Z,3.10
2019-01-04T11:14:16.699Z,3.10
2019-01-04T11:16:48.151Z,3.10
2019-01-04T11:19:17.813Z,3.20
2019-01-04T11:21:50.289Z,3.00
2019-01-04T11:25:03.437Z,2.80
2019-01-04T11:28:22.673Z,2.60
2019-01-04T11:31:23.104Z,2.50
2019-01-04T11:34:11.559Z,2.30
2019-01-04T11:37:10.287Z,2.30
2019-01-04T11:40:05.846Z,2.30
2019-01-04T11:43:13.112Z,2.30
2019-01-04T11:46:22.499Z,2.40
2019-01-04T11:49:14.165Z,2.40
2019-01-04T11:52:31.304Z,2.40
2019-01-04T11:55:02.114Z,2.40
2019-01-04T11:57:34.987Z,2.50
2019-01-04T12:00:05.942Z,2.60
2019-01-04T12:02:40.043Z,2.80
2019-01-04T12:05:12.900Z,2.80
2019-01-04T12:07:45.361Z,2.80
2019-01-04T12:10:23.969Z,2.90
2019-01-04T12:12:53.657Z,2.70
2019-01-04T12:15:24.957Z,2.60
2019-01-04T12:17:57.657Z,2.60
2019-01-04T12:20:27.468Z,2.60
2019-01-04T12:22:59.982Z,2.60
2019-01-04T12:25:29.775Z,2.50
2019-01-04T12:28:23.259Z,2.50
2019-01-04T12:30:50.127Z,2.30
2019-01-04T12:33:22.838Z,2.40
2019-01-04T12:35:52.637Z,2.40
2019-01-04T12:38:52.360Z,2.50
2019-01-04T12:41:24.154Z,2.60
2019-01-04T12:43:53.839Z,2.60
2019-01-04T12:46:26.377Z,2.60
2019-01-04T12:49:29.166Z,2.60
2019-01-04T12:52:00.227Z,2.80
2019-01-04T12:54:47.217Z,2.80
2019-01-04T12:57:14.668Z,2.80
2019-01-04T12:59:47.174Z,2.80
2019-01-04T13:02:16.881Z,2.70
2019-01-04T13:04:52.410Z,2.80
2019-01-04T13:07:25.775Z,2.80
2019-01-04T13:09:57.544Z,3.00
2019-01-04T13:12:27.245Z,2.90
2019-01-04T13:15:01.236Z,3.00
2019-01-04T13:17:34.097Z,2.90
2019-01-04T13:20:03.957Z,2.90
2019-01-04T13:22:51.805Z,2.90
2019-01-04T13:25:24.981Z,2.80
2019-01-04T13:28:15.984Z,2.80
2019-01-04T13:30:49.186Z,2.80
2019-01-04T13:33:22.001Z,2.70
2019-01-04T13:35:51.696Z,2.60
2019-01-04T13:38:24.168Z,2.50
2019-01-04T13:40:53.937Z,2.50
2019-01-04T13:43:26.309Z,2.40
2019-01-04T13:45:59.074Z,2.40
2019-01-04T13:48:28.773Z,2.30
2019-01-04T13:51:36.817Z,2.20
2019-01-04T13:54:13.222Z,2.30
2019-01-04T13:56:38.323Z,2.20
2019-01-04T13:59:12.087Z,2.30
2019-01-04T14:01:41.797Z,2.30
2019-01-04T14:04:13.176Z,2.30
2019-01-04T14:06:48.776Z,2.40
2019-01-04T14:09:21.698Z,2.30
2019-01-04T14:11:50.980Z,2.30
2019-01-04T14:14:23.539Z,2.30
2019-01-04T14:16:53.196Z,2.30
2019-01-04T14:19:26.353Z,2.20
2019-01-04T14:21:59.998Z,2.20
2019-01-04T14:24:29.854Z,2.20
2019-01-04T14:27:01.234Z,2.20
2019-01-04T14:29:34.306Z,2.10
2019-01-04T14:32:04.201Z,2.10
2019-01-04T14:34:36.439Z,2.10
2019-01-04T14:37:06.210Z,2.20
2019-01-04T14:39:39.605Z,2.20
2019-01-04T14:42:12.247Z,2.00
2019-01-04T14:44:41.966Z,2.10
2019-01-04T14:47:13.313Z,2.00
2019-01-04T14:49:46.682Z,1.90
2019-01-04T14:52:16.376Z,1.80
2019-01-04T14:54:49.371Z,1.80
2019-01-04T14:57:22.038Z,1.80
2019-01-04T14:59:51.749Z,1.70
2019-01-04T15:02:24.155Z,1.70
2019-01-04T15:04:53.922Z,1.70
2019-01-04T15:07:25.282Z,1.70
2019-01-04T15:10:02.346Z,1.60
2019-01-04T15:12:36.180Z,1.60
2019-01-04T15:15:06.264Z,1.50
2019-01-04T15:17:38.889Z,1.50
2019-01-04T15:20:12.116Z,1.60
2019-01-04T15:22:41.787Z,1.50
2019-01-04T15:25:13.174Z,1.50
2019-01-04T15:27:50.368Z,1.40
2019-01-04T15:30:22.854Z,1.30
2019-01-04T15:32:52.533Z,1.20
2019-01-04T15:35:25.789Z,1.10
2019-01-04T15:38:04.743Z,1.00
2019-01-04T15:40:37.734Z,0.90
2019-01-04T15:43:10.202Z,0.90
2019-01-04T15:45:39.990Z,0.90
2019-01-04T15:48:21.268Z,0.80
2019-01-04T15:50:50.559Z,0.80
2019-01-04T15:53:23.736Z,0.80
2019-01-04T15:55:53.450Z,0.80
2019-01-04T15:58:25.944Z,0.80
2019-01-04T16:00:57.948Z,0.80
2019-01-04T16:03:27.794Z,0.70
2019-01-04T16:06:00.290Z,0.70
2019-01-04T16:08:29.987Z,0.70
2019-01-04T16:11:01.329Z,0.70
2019-01-04T16:13:33.753Z,0.60
2019-01-04T16:16:03.489Z,0.60
2019-01-04T16:18:36.061Z,0.60
2019-01-04T16:21:05.755Z,0.60
2019-01-04T16:23:38.208Z,0.60
2019-01-04T16:26:10.421Z,0.50
2019-01-04T16:28:40.187Z,0.50
2019-01-04T16:31:16.013Z,0.40
2019-01-04T16:33:48.428Z,0.40
2019-01-04T16:36:18.213Z,0.40
2019-01-04T16:38:49.509Z,0.40
2019-01-04T16:41:22.385Z,0.40
2019-01-04T16:43:52.078Z,0.40
2019-01-04T16:46:24.688Z,0.40
2019-01-04T16:48:54.524Z,0.40
2019-01-04T16:51:27.243Z,0.40
2019-01-04T16:54:14.525Z,0.50
2019-01-04T16:56:38.727Z,0.50
2019-01-04T16:59:11.979Z,0.50
2019-01-04T17:01:41.937Z,0.60
2019-01-04T17:04:13.414Z,0.60
2019-01-04T17:06:50.048Z,0.60
2019-01-04T17:09:24.208Z,0.60
2019-01-04T17:11:53.913Z,0.60
2019-01-04T17:14:26.414Z,0.60
2019-01-04T17:16:58.882Z,0.60
2019-01-04T17:19:28.551Z,0.60
2019-01-04T17:22:11.157Z,0.70
2019-01-04T17:24:41.176Z,0.80
2019-01-04T17:27:13.942Z,0.80
2019-01-04T17:29:46.312Z,0.70
2019-01-04T17:32:16.032Z,0.80
2019-01-04T17:34:48.529Z,0.80
2019-01-04T17:37:18.223Z,0.90
2019-01-04T17:39:49.537Z,0.90
2019-01-04T17:42:22.147Z,1.00
2019-01-04T17:44:51.840Z,1.00
2019-01-04T17:47:24.640Z,1.00
2019-01-04T17:49:54.330Z,1.00
2019-01-04T17:52:47.357Z,1.10
2019-01-04T17:55:17.040Z,1.00
2019-01-04T17:57:49.612Z,1.00
2019-01-04T18:00:50.072Z,1.00
2019-01-04T18:03:24.202Z,1.00
2019-01-04T18:05:53.893Z,1.10
2019-01-04T18:08:24.985Z,1.00
2019-01-04T18:10:54.752Z,1.00
2019-01-04T18:13:27.305Z,1.00
2019-01-04T18:15:59.260Z,1.00
2019-01-04T18:18:28.983Z,1.00
2019-01-04T18:21:11.453Z,1.10
2019-01-04T18:23:41.150Z,1.10
2019-01-04T18:26:14.067Z,1.10
2019-01-04T18:28:59.365Z,1.10
2019-01-04T18:31:29.094Z,1.10
2019-01-04T18:34:01.853Z,1.10
2019-01-04T18:36:34.354Z,1.10
2019-01-04T18:39:05.936Z,1.20
2019-01-04T18:41:53.870Z,1.20
2019-01-04T18:44:26.796Z,1.20
2019-01-04T18:46:59.796Z,1.20
2019-01-04T18:49:29.484Z,1.20
2019-01-04T18:52:02.840Z,1.20
2019-01-04T18:54:35.811Z,1.10
2019-01-04T18:57:05.599Z,1.20
2019-01-04T18:59:50.407Z,1.20
2019-01-04T19:02:22.636Z,1.20
2019-01-04T19:04:52.321Z,1.20
2019-01-04T19:07:24.812Z,1.20
2019-01-04T19:09:54.636Z,1.20
2019-01-04T19:12:26.040Z,1.20
2019-01-04T19:15:34.993Z,1.20
2019-01-04T19:18:04.928Z,1.20
2019-01-04T19:20:37.488Z,1.10
2019-01-04T19:23:11.985Z,1.10
2019-01-04T19:25:39.077Z,1.00
2019-01-04T19:28:11.529Z,1.00
2019-01-04T19:30:42.289Z,1.00
2019-01-04T19:33:13.597Z,1.10
2019-01-04T19:35:46.482Z,1.10
2019-01-04T19:38:16.177Z,1.10
2019-01-04T19:40:50.432Z,1.10
2019-01-04T19:43:22.533Z,1.10
2019-01-04T19:45:52.292Z,1.10
2019-01-04T19:48:40.215Z,1.20
2019-01-04T19:51:14.301Z,1.20
2019-01-04T19:53:46.532Z,1.20
2019-01-04T19:56:16.216Z,1.20
2019-01-04T19:58:48.493Z,1.20
2019-01-04T20:01:24.395Z,1.20
2019-01-04T20:03:54.135Z,1.20
2019-01-04T20:07:12.105Z,1.20
2019-01-04T20:13:59.177Z,1.20
2019-01-04T20:17:00.894Z,1.20
2019-01-04T20:19:48.812Z,1.20
2019-01-04T20:22:36.188Z,1.20
2019-01-04T20:25:27.878Z,1.10
2019-01-04T20:28:34.631Z,1.20
2019-01-04T20:31:23.560Z,1.20
2019-01-04T20:34:36.730Z,1.20
2019-01-04T20:37:24.592Z,1.20
2019-01-04T20:40:23.655Z,1.20
2019-01-04T20:43:15.057Z,1.20
2019-01-04T20:46:06.206Z,1.10
2019-01-04T20:49:00.829Z,1.10
2019-01-04T20:51:54.701Z,1.10
2019-01-04T20:54:42.849Z,1.10
2019-01-04T21:00:40.950Z,1.10
2019-01-04T21:03:36.296Z,1.10
2019-01-04T21:09:26.693Z,1.00
2019-01-04T21:12:11.625Z,1.00
2019-01-04T21:15:10.689Z,0.90
2019-01-04T21:18:24.258Z,0.90
2019-01-04T21:21:13.832Z,0.80
2019-01-04T21:24:11.156Z,0.80
2019-01-04T21:27:06.787Z,0.80
2019-01-04T21:36:00.734Z,0.80
2019-01-04T21:38:48.176Z,0.80
2019-01-04T21:44:59.250Z,0.80
2019-01-04T21:47:46.956Z,0.70
2019-01-04T21:50:36.238Z,0.80
2019-01-04T21:53:23.752Z,0.80
2019-01-04T21:56:15.348Z,0.80
2019-01-04T22:02:23.007Z,0.80
2019-01-04T22:05:23.880Z,0.80
2019-01-04T22:08:17.415Z,0.80
2019-01-04T22:11:18.898Z,0.80
2019-01-04T22:14:23.352Z,0.90
2019-01-04T22:17:07.343Z,0.90
2019-01-04T22:22:52.705Z,1.00
2019-01-04T22:25:59.498Z,1.00
2019-01-04T22:28:55.221Z,1.00
2019-01-04T22:31:46.902Z,0.90
2019-01-04T22:34:35.706Z,1.00
2019-01-04T22:37:23.511Z,0.90
2019-01-04T22:40:15.409Z,1.00
2019-01-04T22:46:11.733Z,1.00
2019-01-04T22:49:12.330Z,1.10
2019-01-04T22:51:59.805Z,1.10
2019-01-04T22:54:59.892Z,1.10
2019-01-04T22:57:59.192Z,1.10
2019-01-04T23:00:46.742Z,1.10
2019-01-04T23:03:37.551Z,1.20
2019-01-04T23:09:47.601Z,1.10
2019-01-04T23:12:48.702Z,1.10
2019-01-04T23:15:36.101Z,1.10
2019-01-04T23:18:23.358Z,1.20
2019-01-04T23:21:13.788Z,1.10
2019-01-04T23:24:19.124Z,1.20
2019-01-04T23:27:11.040Z,1.20
2019-01-04T23:30:00.969Z,1.20
2019-01-04T23:35:38.538Z,1.20
2019-01-04T23:38:24.041Z,1.20
2019-01-04T23:41:24.213Z,1.20
2019-01-04T23:44:28.307Z,1.20
2019-01-04T23:47:19.108Z,1.20
2019-01-04T23:53:24.335Z,1.30
2019-01-04T23:56:13.162Z,1.20
2019-01-04T23:59:00.869Z,1.20
